createdAt,value
2022-10-26T00:02:00.415Z,101207.50
2022-10-26T00:04:27.110Z,101204.81
2022-10-26T00:06:53.687Z,101211.19
2022-10-26T00:09:20.335Z,101213.44
2022-10-26T00:11:46.914Z,101210.97
2022-10-26T00:14:13.458Z,101203.69
2022-10-26T00:16:40.033Z,101197.38
2022-10-26T00:19:06.678Z,101195.31
2022-10-26T00:21:33.229Z,101198.38
2022-10-26T00:24:00.264Z,101186.00
2022-10-26T00:26:27.893Z,101191.56
2022-10-26T00:28:55.199Z,101178.66
2022-10-26T00:31:22.127Z,101179.16
2022-10-26T00:33:52.512Z,101179.22
2022-10-26T00:36:19.138Z,101166.69
2022-10-26T00:38:50.110Z,101163.66
2022-10-26T00:41:21.388Z,101156.00
2022-10-26T00:43:48.488Z,101153.38
2022-10-26T00:46:32.775Z,101151.06
2022-10-26T00:49:02.384Z,101164.47
2022-10-26T00:51:55.438Z,101176.78
2022-10-26T00:54:22.067Z,101180.50
2022-10-26T00:56:50.972Z,101182.28
2022-10-26T00:59:18.133Z,101167.88
2022-10-26T01:01:47.383Z,101160.31
2022-10-26T01:04:14.862Z,101153.19
2022-10-26T01:06:42.377Z,101143.06
2022-10-26T01:09:10.203Z,101137.56
2022-10-26T01:11:36.806Z,101138.13
2022-10-26T01:14:05.656Z,101124.09
2022-10-26T01:16:44.452Z,101130.09
2022-10-26T01:19:29.407Z,101114.56
2022-10-26T01:22:22.403Z,101113.19
2022-10-26T01:24:55.092Z,101111.78
2022-10-26T01:27:26.993Z,101099.88
2022-10-26T01:30:14.979Z,101109.22
2022-10-26T01:33:03.349Z,101101.03
2022-10-26T01:35:47.873Z,101107.38
2022-10-26T01:38:32.939Z,101107.50
2022-10-26T01:41:13.157Z,101106.72
2022-10-26T01:43:46.947Z,101105.31
2022-10-26T01:46:14.520Z,101103.00
2022-10-26T01:48:41.369Z,101106.13
2022-10-26T01:51:09.714Z,101101.41
2022-10-26T01:53:36.463Z,101107.88
2022-10-26T01:56:03.222Z,101113.47
2022-10-26T01:59:07.858Z,101106.13
2022-10-26T02:01:50.895Z,101104.81
2022-10-26T02:04:48.587Z,101096.88
2022-10-26T02:07:35.468Z,101086.06
2022-10-26T02:10:25.426Z,101079.84
2022-10-26T02:13:01.097Z,101078.84
2022-10-26T02:15:36.346Z,101070.09
2022-10-26T02:18:15.040Z,101065.91
2022-10-26T02:20:45.082Z,101069.97
2022-10-26T02:23:12.636Z,101063.44
2022-10-26T02:25:44.242Z,101069.16
2022-10-26T02:28:14.448Z,101062.69
2022-10-26T02:30:42.140Z,101055.94
2022-10-26T02:33:10.892Z,101053.03
2022-10-26T02:35:38.564Z,101047.69
2022-10-26T02:38:08.663Z,101031.81
2022-10-26T02:40:36.060Z,101034.22
2022-10-26T02:43:06.476Z,101035.88
2022-10-26T02:45:46.258Z,101041.06
2022-10-26T02:48:12.883Z,101026.47
2022-10-26T02:50:48.440Z,101025.03
2022-10-26T02:53:26.230Z,101026.13
2022-10-26T02:55:52.854Z,101025.22
2022-10-26T02:58:25.779Z,101028.38
2022-10-26T03:00:53.033Z,101016.06
2022-10-26T03:03:19.763Z,101017.34
2022-10-26T03:05:46.463Z,101002.22
2022-10-26T03:08:13.035Z,101007.88
2022-10-26T03:10:44.424Z,101003.59
2022-10-26T03:13:12.189Z,101003.59
2022-10-26T03:15:39.027Z,100996.78
2022-10-26T03:18:05.914Z,101005.56
2022-10-26T03:20:32.605Z,101012.97
2022-10-26T03:22:59.241Z,101003.81
2022-10-26T03:25:26.242Z,101010.91
2022-10-26T03:28:03.400Z,101003.53
2022-10-26T03:30:30.788Z,101010.97
2022-10-26T03:32:57.662Z,101005.34
2022-10-26T03:35:24.470Z,101015.97
2022-10-26T03:37:51.301Z,101008.16
2022-10-26T03:40:18.185Z,101005.56
2022-10-26T03:42:44.807Z,101002.09
2022-10-26T03:45:11.450Z,101002.75
2022-10-26T03:47:48.592Z,100998.34
2022-10-26T03:50:17.898Z,101005.06
2022-10-26T03:52:45.073Z,101006.34
2022-10-26T03:55:11.675Z,101006.44
2022-10-26T03:57:45.647Z,100999.91
2022-10-26T04:00:17.564Z,100996.19
2022-10-26T04:02:48.623Z,101000.59
2022-10-26T04:05:16.682Z,100999.59
2022-10-26T04:07:43.858Z,100998.03
2022-10-26T04:10:10.778Z,100993.59
2022-10-26T04:12:40.357Z,100997.28
2022-10-26T04:15:07.776Z,100995.53
2022-10-26T04:17:34.558Z,100998.22
2022-10-26T04:20:01.221Z,101001.25
2022-10-26T04:22:27.815Z,101004.22
2022-10-26T04:24:54.361Z,101005.88
2022-10-26T04:27:21.071Z,101019.84
2022-10-26T04:29:47.639Z,101019.66
2022-10-26T04:32:14.192Z,101023.59
2022-10-26T04:34:40.761Z,101024.38
2022-10-26T04:37:07.332Z,101017.53
2022-10-26T04:39:33.982Z,101023.97
2022-10-26T04:42:00.613Z,101020.09
2022-10-26T04:44:27.140Z,101022.38
2022-10-26T04:46:53.730Z,101018.03
2022-10-26T04:49:20.391Z,101021.19
2022-10-26T04:51:46.945Z,101022.22
2022-10-26T04:54:13.762Z,101024.03
2022-10-26T04:56:40.443Z,101026.06
2022-10-26T04:59:07.110Z,101031.88
2022-10-26T05:01:33.937Z,101022.72
2022-10-26T05:04:00.582Z,101027.13
2022-10-26T05:06:27.161Z,101030.75
2022-10-26T05:08:53.777Z,101028.06
2022-10-26T05:11:20.329Z,101032.19
2022-10-26T05:13:48.046Z,101036.03
2022-10-26T05:16:16.247Z,101039.78
2022-10-26T05:18:42.802Z,101032.72
2022-10-26T05:21:09.427Z,101038.25
2022-10-26T05:23:35.960Z,101034.91
2022-10-26T05:26:04.966Z,101030.88
2022-10-26T05:28:31.535Z,101034.22
2022-10-26T05:30:58.812Z,101028.84
2022-10-26T05:33:25.517Z,101022.41
2022-10-26T05:35:54.672Z,101027.47
2022-10-26T05:38:21.238Z,101024.59
2022-10-26T05:40:51.480Z,101022.50
2022-10-26T05:43:18.624Z,101020.91
2022-10-26T05:45:45.465Z,101018.50
2022-10-26T05:48:14.087Z,101015.34
2022-10-26T05:50:40.757Z,101023.38
2022-10-26T05:53:07.350Z,101021.34
2022-10-26T05:55:34.621Z,101025.91
2022-10-26T05:58:01.554Z,101024.81
2022-10-26T06:00:29.349Z,101020.63
2022-10-26T06:03:05.091Z,101021.13
2022-10-26T06:05:37.432Z,101024.53
2022-10-26T06:08:08.592Z,101028.13
2022-10-26T06:10:35.346Z,101025.09
2022-10-26T06:13:02.232Z,101034.06
2022-10-26T06:15:31.191Z,101026.69
2022-10-26T06:18:09.368Z,101029.34
2022-10-26T06:20:45.160Z,101026.47
2022-10-26T06:23:24.911Z,101036.75
2022-10-26T06:26:09.574Z,101035.53
2022-10-26T06:28:58.102Z,101031.38
2022-10-26T06:31:24.647Z,101035.94
2022-10-26T06:33:54.051Z,101040.16
2022-10-26T06:36:26.974Z,101027.63
2022-10-26T06:39:03.824Z,101035.00
2022-10-26T06:41:32.689Z,101033.78
2022-10-26T06:43:59.576Z,101036.88
2022-10-26T06:46:32.799Z,101042.22
2022-10-26T06:49:19.356Z,101044.09
2022-10-26T06:51:49.699Z,101041.97
2022-10-26T06:54:23.578Z,101036.44
2022-10-26T06:56:51.840Z,101040.66
2022-10-26T06:59:54.625Z,101032.00
2022-10-26T07:02:21.599Z,101039.41
2022-10-26T07:04:48.420Z,101043.72
2022-10-26T07:07:18.508Z,101025.53
2022-10-26T07:09:45.127Z,101028.03
2022-10-26T07:12:11.810Z,101031.53
2022-10-26T07:14:38.559Z,101034.84
2022-10-26T07:17:05.866Z,101020.81
2022-10-26T07:19:32.602Z,101017.75
2022-10-26T07:22:00.188Z,101011.94
2022-10-26T07:24:27.892Z,101008.59
2022-10-26T07:26:55.773Z,101004.81
2022-10-26T07:29:23.698Z,100991.69
2022-10-26T07:31:50.598Z,100979.47
2022-10-26T07:34:17.311Z,100976.81
2022-10-26T07:36:43.956Z,100969.41
2022-10-26T07:39:10.788Z,100972.13
2022-10-26T07:41:37.430Z,100968.56
2022-10-26T07:44:04.044Z,100959.84
2022-10-26T07:46:30.644Z,100951.84
2022-10-26T07:48:57.244Z,100939.34
2022-10-26T07:51:23.834Z,100929.94
2022-10-26T07:53:50.405Z,100906.19
2022-10-26T07:56:17.040Z,100899.47
2022-10-26T07:58:43.634Z,100890.03
2022-10-26T08:01:12.544Z,100881.25
2022-10-26T08:03:39.651Z,100881.56
2022-10-26T08:06:07.570Z,100863.09
2022-10-26T08:08:36.789Z,100851.56
2022-10-26T08:11:03.620Z,100832.19
2022-10-26T08:13:30.402Z,100808.41
2022-10-26T08:15:58.378Z,100803.88
2022-10-26T08:18:26.189Z,100788.78
2022-10-26T08:20:56.369Z,100781.78
2022-10-26T08:23:28.561Z,100771.25
2022-10-26T08:26:02.520Z,100745.63
2022-10-26T08:28:29.675Z,100724.16
2022-10-26T08:30:56.966Z,100724.19
2022-10-26T08:33:24.329Z,100707.44
2022-10-26T08:35:59.593Z,100689.44
2022-10-26T08:38:26.304Z,100685.91
2022-10-26T08:40:53.318Z,100678.22
2022-10-26T08:43:26.888Z,100661.22
2022-10-26T08:46:05.696Z,100644.09
2022-10-26T08:48:56.309Z,100624.88
2022-10-26T08:51:26.804Z,100615.78
2022-10-26T08:54:05.654Z,100612.25
2022-10-26T08:56:50.084Z,100603.13
2022-10-26T08:59:35.673Z,100586.75
2022-10-26T09:02:02.820Z,100579.66
2022-10-26T09:04:31.567Z,100570.78
2022-10-26T09:07:06.216Z,100565.34
2022-10-26T09:10:13.662Z,100557.63
2022-10-26T09:13:25.090Z,100553.31
2022-10-26T09:16:20.418Z,100539.81
2022-10-26T09:18:55.821Z,100537.72
2022-10-26T09:21:29.580Z,100524.69
2022-10-26T09:24:35.358Z,100528.53
2022-10-26T09:27:35.734Z,100503.81
2022-10-26T09:30:14.660Z,100500.41
2022-10-26T09:32:47.417Z,100490.84
2022-10-26T09:35:46.161Z,100483.47
2022-10-26T09:38:49.998Z,100475.78
2022-10-26T09:41:27.143Z,100467.81
2022-10-26T09:44:02.912Z,100461.91
2022-10-26T09:46:47.039Z,100466.63
2022-10-26T09:49:15.433Z,100463.25
2022-10-26T09:51:43.750Z,100456.97
2022-10-26T09:54:18.824Z,100447.44
2022-10-26T09:56:55.915Z,100443.56
2022-10-26T09:59:23.516Z,100429.31
2022-10-26T10:01:50.438Z,100428.19
2022-10-26T10:04:20.362Z,100416.72
2022-10-26T10:06:48.964Z,100412.84
2022-10-26T10:09:17.742Z,100411.06
2022-10-26T10:11:55.381Z,100411.56
2022-10-26T10:14:39.903Z,100403.94
2022-10-26T10:17:09.734Z,100395.84
2022-10-26T10:19:37.745Z,100399.56
2022-10-26T10:22:16.163Z,100399.97
2022-10-26T10:24:43.897Z,100398.06
2022-10-26T10:27:15.510Z,100391.16
2022-10-26T10:29:46.563Z,100396.69
2022-10-26T10:32:27.851Z,100394.19
2022-10-26T10:34:56.081Z,100397.16
2022-10-26T10:37:31.319Z,100401.38
2022-10-26T10:40:07.692Z,100396.19
2022-10-26T10:42:37.348Z,100390.09
2022-10-26T10:45:04.594Z,100391.03
2022-10-26T10:47:35.969Z,100393.97
2022-10-26T10:50:04.386Z,100397.09
2022-10-26T10:52:33.083Z,100403.09
2022-10-26T10:55:14.952Z,100408.78
2022-10-26T10:58:01.759Z,100414.41
2022-10-26T11:00:28.390Z,100415.81
2022-10-26T11:03:25.045Z,100419.16
2022-10-26T11:06:01.578Z,100426.47
2022-10-26T11:08:43.612Z,100432.66
2022-10-26T11:11:27.303Z,100437.13
2022-10-26T11:13:58.667Z,100440.75
2022-10-26T11:16:34.916Z,100439.44
2022-10-26T11:19:12.709Z,100440.25
2022-10-26T11:21:39.251Z,100444.91
2022-10-26T11:24:16.359Z,100432.84
2022-10-26T11:26:49.039Z,100450.00
2022-10-26T11:29:24.685Z,100448.66
2022-10-26T11:31:54.632Z,100461.91
2022-10-26T11:34:40.978Z,100460.81
2022-10-26T11:37:19.709Z,100459.75
2022-10-26T11:39:58.112Z,100458.91
2022-10-26T11:42:30.292Z,100458.28
2022-10-26T11:45:03.186Z,100452.22
2022-10-26T11:47:39.668Z,100458.19
2022-10-26T11:50:20.303Z,100449.28
2022-10-26T11:52:49.783Z,100449.75
2022-10-26T11:55:17.243Z,100456.06
2022-10-26T11:57:46.551Z,100464.59
2022-10-26T12:00:13.047Z,100468.22
2022-10-26T12:05:15.257Z,100488.78
2022-10-26T12:07:45.898Z,100486.06
2022-10-26T12:10:23.879Z,100500.50
2022-10-26T12:12:53.569Z,100518.03
2022-10-26T12:15:40.309Z,100535.09
2022-10-26T12:18:54.052Z,100547.34
2022-10-26T12:21:20.298Z,100552.91
2022-10-26T12:23:58.914Z,100554.69
2022-10-26T12:26:28.525Z,100561.94
2022-10-26T12:29:04.413Z,100552.91
2022-10-26T12:31:37.329Z,100539.50
2022-10-26T12:34:05.856Z,100528.25
2022-10-26T12:36:57.259Z,100509.84
2022-10-26T12:39:30.878Z,100491.75
2022-10-26T12:42:06.473Z,100479.19
2022-10-26T12:44:48.329Z,100478.47
2022-10-26T12:47:30.277Z,100457.41
2022-10-26T12:50:05.810Z,100446.50
2022-10-26T12:52:43.907Z,100435.47
2022-10-26T12:55:18.161Z,100425.03
2022-10-26T12:57:54.376Z,100431.72
2022-10-26T13:00:26.176Z,100424.25
2022-10-26T13:03:11.106Z,100412.97
2022-10-26T13:06:17.213Z,100403.81
2022-10-26T13:09:00.113Z,100410.72
2022-10-26T13:11:42.746Z,100403.66
2022-10-26T13:14:21.882Z,100405.19
2022-10-26T13:16:48.787Z,100406.25
2022-10-26T13:19:39.738Z,100408.31
2022-10-26T13:22:06.395Z,100413.19
2022-10-26T13:24:34.781Z,100408.66
2022-10-26T13:27:08.061Z,100412.50
2022-10-26T13:30:03.492Z,100407.88
2022-10-26T13:32:31.339Z,100409.47
2022-10-26T13:35:00.132Z,100402.63
2022-10-26T13:37:28.275Z,100413.19
2022-10-26T13:39:56.010Z,100413.56
2022-10-26T13:42:44.502Z,100415.81
2022-10-26T13:45:15.228Z,100416.63
2022-10-26T13:48:01.692Z,100419.31
2022-10-26T13:50:33.493Z,100416.09
2022-10-26T13:53:06.280Z,100417.75
2022-10-26T13:55:38.035Z,100425.44
2022-10-26T13:58:29.400Z,100419.63
2022-10-26T14:01:14.158Z,100414.84
2022-10-26T14:03:41.619Z,100419.72
2022-10-26T14:06:37.317Z,100414.00
2022-10-26T14:09:12.528Z,100420.06
2022-10-26T14:11:55.612Z,100421.50
2022-10-26T14:14:32.536Z,100425.19
2022-10-26T14:16:59.533Z,100429.03
2022-10-26T14:19:30.572Z,100440.00
2022-10-26T14:22:01.170Z,100427.41
2022-10-26T14:24:46.787Z,100436.69
2022-10-26T14:27:18.644Z,100446.31
2022-10-26T14:29:49.865Z,100453.06
2022-10-26T14:32:33.505Z,100456.28
2022-10-26T14:35:00.144Z,100464.81
2022-10-26T14:37:41.358Z,100467.09
2022-10-26T14:40:17.807Z,100486.47
2022-10-26T14:42:49.998Z,100504.63
2022-10-26T14:45:47.730Z,100531.84
2022-10-26T14:48:24.106Z,100567.69
2022-10-26T14:51:04.182Z,100601.66
2022-10-26T14:53:34.900Z,100635.16
2022-10-26T14:56:01.900Z,100656.75
2022-10-26T14:58:30.630Z,100674.00
2022-10-26T15:01:22.269Z,100690.94
2022-10-26T15:03:58.180Z,100713.34
2022-10-26T15:06:27.721Z,100719.50
2022-10-26T15:08:59.427Z,100743.63
2022-10-26T15:11:27.286Z,100761.31
2022-10-26T15:13:54.743Z,100766.31
2022-10-26T15:16:24.322Z,100789.53
2022-10-26T15:18:56.243Z,100813.59
2022-10-26T15:21:37.348Z,100838.53
2022-10-26T15:24:31.017Z,100864.03
2022-10-26T15:27:00.834Z,100882.72
2022-10-26T15:29:47.358Z,100902.50
2022-10-26T15:32:33.204Z,100926.63
2022-10-26T15:35:18.175Z,100955.69
2022-10-26T15:37:46.010Z,100981.88
2022-10-26T15:40:13.222Z,101025.44
2022-10-26T15:42:41.539Z,101057.59
2022-10-26T15:45:26.156Z,101091.03
2022-10-26T15:47:53.877Z,101119.66
2022-10-26T15:50:22.703Z,101155.94
2022-10-26T15:52:49.768Z,101191.59
2022-10-26T15:55:17.531Z,101234.09
2022-10-26T15:57:44.169Z,101261.47
2022-10-26T16:00:15.665Z,101296.09
2022-10-26T16:02:44.157Z,101341.72
2022-10-26T16:05:16.082Z,101372.03
2022-10-26T16:07:44.179Z,101391.91
2022-10-26T16:10:19.661Z,101420.06
2022-10-26T16:12:46.481Z,101436.09
2022-10-26T16:15:21.526Z,101469.31
2022-10-26T16:17:48.913Z,101486.41
2022-10-26T16:20:24.780Z,101497.38
2022-10-26T16:22:52.748Z,101503.66
2022-10-26T16:25:22.575Z,101513.81
2022-10-26T16:27:49.661Z,101513.19
2022-10-26T16:30:16.760Z,101504.66
2022-10-26T16:32:43.726Z,101502.13
2022-10-26T16:35:11.791Z,101490.81
2022-10-26T16:37:38.426Z,101492.22
2022-10-26T16:40:05.996Z,101487.16
2022-10-26T16:42:33.148Z,101496.13
2022-10-26T16:45:02.628Z,101519.56
2022-10-26T16:47:30.747Z,101535.88
2022-10-26T16:49:57.399Z,101553.50
2022-10-26T16:52:24.065Z,101558.41
2022-10-26T16:54:50.689Z,101562.63
2022-10-26T16:57:17.310Z,101580.69
2022-10-26T16:59:44.006Z,101589.00
2022-10-26T17:02:13.718Z,101608.91
2022-10-26T17:04:40.477Z,101617.75
2022-10-26T17:07:07.036Z,101628.00
2022-10-26T17:09:33.623Z,101638.47
2022-10-26T17:12:02.060Z,101641.97
2022-10-26T17:14:29.037Z,101641.50
2022-10-26T17:16:55.627Z,101646.16
2022-10-26T17:19:22.199Z,101612.69
2022-10-26T17:21:48.818Z,101615.22
2022-10-26T17:24:15.487Z,101604.09
2022-10-26T17:26:42.444Z,101591.72
2022-10-26T17:31:37.247Z,101547.06
2022-10-26T17:34:03.886Z,101530.91
2022-10-26T17:36:31.678Z,101517.66
2022-10-26T17:38:58.561Z,101497.53
2022-10-26T17:41:25.360Z,101470.53
2022-10-26T17:43:51.934Z,101455.41
2022-10-26T17:46:24.331Z,101435.03
2022-10-26T17:48:59.151Z,101425.69
2022-10-26T17:51:27.597Z,101403.69
2022-10-26T17:53:54.985Z,101400.81
2022-10-26T17:56:27.700Z,101396.44
2022-10-26T17:58:57.625Z,101374.84
2022-10-26T18:01:25.078Z,101366.13
2022-10-26T18:03:52.243Z,101351.78
2022-10-26T18:06:19.100Z,101357.59
2022-10-26T18:08:46.119Z,101350.78
2022-10-26T18:11:15.099Z,101340.34
2022-10-26T18:13:41.773Z,101352.63
2022-10-26T18:16:09.532Z,101354.28
2022-10-26T18:18:36.301Z,101352.81
2022-10-26T18:21:08.110Z,101358.41
2022-10-26T18:23:34.907Z,101362.16
2022-10-26T18:26:11.135Z,101362.13
2022-10-26T18:28:40.191Z,101378.75
2022-10-26T18:31:09.013Z,101378.28
2022-10-26T18:33:35.854Z,101400.72
2022-10-26T18:36:10.446Z,101429.97
2022-10-26T18:38:37.739Z,101441.13
2022-10-26T18:41:04.469Z,101437.09
2022-10-26T18:43:31.010Z,101448.84
2022-10-26T18:46:09.807Z,101477.41
2022-10-26T18:48:36.838Z,101499.22
2022-10-26T18:51:11.873Z,101523.66
2022-10-26T18:53:40.203Z,101543.69
2022-10-26T18:56:09.795Z,101578.50
2022-10-26T18:58:38.459Z,101614.94
2022-10-26T19:01:26.410Z,101632.19
2022-10-26T19:04:01.427Z,101658.41
2022-10-26T19:06:33.437Z,101676.78
2022-10-26T19:09:00.517Z,101694.44
2022-10-26T19:11:28.917Z,101708.59
2022-10-26T19:13:56.159Z,101726.53
2022-10-26T19:19:16.344Z,101763.47
2022-10-26T19:21:43.621Z,101777.31
2022-10-26T19:24:18.991Z,101797.34
2022-10-26T19:26:46.256Z,101823.53
2022-10-26T19:29:15.520Z,101837.19
2022-10-26T19:31:43.578Z,101854.09
2022-10-26T19:34:10.960Z,101857.41
2022-10-26T19:36:38.122Z,101874.69
2022-10-26T19:39:04.799Z,101888.34
2022-10-26T19:41:31.413Z,101896.59
2022-10-26T19:46:28.115Z,101914.06
2022-10-26T19:48:56.806Z,101918.63
2022-10-26T19:51:24.695Z,101946.50
2022-10-26T19:53:52.071Z,101944.97
2022-10-26T19:56:20.494Z,101942.72
2022-10-26T19:58:48.146Z,101949.50
2022-10-26T20:01:15.559Z,101950.44
2022-10-26T20:03:42.647Z,101943.66
2022-10-26T20:06:12.891Z,101935.38
2022-10-26T20:08:41.487Z,101929.41
2022-10-26T20:11:11.675Z,101927.34
2022-10-26T20:13:41.418Z,101915.09
2022-10-26T20:16:08.832Z,101914.63
2022-10-26T20:18:35.444Z,101917.16
2022-10-26T20:21:02.086Z,101913.16
2022-10-26T20:23:28.740Z,101926.19
2022-10-26T20:25:55.838Z,101919.88
2022-10-26T20:28:22.806Z,101908.78
2022-10-26T20:30:49.896Z,101911.94
2022-10-26T20:33:16.749Z,101903.41
2022-10-26T20:35:43.434Z,101902.09
2022-10-26T20:38:18.701Z,101898.75
2022-10-26T20:40:53.340Z,101906.72
2022-10-26T20:43:21.408Z,101913.16
2022-10-26T20:45:48.703Z,101926.44
2022-10-26T20:48:15.742Z,101919.00
2022-10-26T20:50:47.229Z,101915.84
2022-10-26T20:53:27.693Z,101910.72
2022-10-26T20:55:58.244Z,101900.81
2022-10-26T20:58:41.295Z,101893.34
2022-10-26T21:01:25.671Z,101890.38
2022-10-26T21:03:53.525Z,101891.47
2022-10-26T21:06:20.311Z,101890.16
2022-10-26T21:08:49.655Z,101894.41
2022-10-26T21:11:17.469Z,101888.09
2022-10-26T21:13:44.753Z,101892.28
2022-10-26T21:16:11.481Z,101898.97
2022-10-26T21:18:38.074Z,101901.53
2022-10-26T21:21:04.879Z,101919.34
2022-10-26T21:23:36.278Z,101918.47
2022-10-26T21:26:03.325Z,101928.44
2022-10-26T21:28:45.936Z,101922.28
2022-10-26T21:31:14.318Z,101931.06
2022-10-26T21:33:41.397Z,101927.44
2022-10-26T21:36:13.965Z,101931.34
2022-10-26T21:38:42.296Z,101929.31
2022-10-26T21:41:17.491Z,101922.91
2022-10-26T21:43:46.267Z,101918.41
2022-10-26T21:46:13.508Z,101921.16
2022-10-26T21:48:41.119Z,101921.22
2022-10-26T21:51:15.549Z,101918.91
2022-10-26T21:53:42.182Z,101917.59
2022-10-26T21:56:11.969Z,101925.75
2022-10-26T21:58:38.992Z,101934.13
2022-10-26T22:01:16.322Z,101953.03
2022-10-26T22:03:43.736Z,101956.38
2022-10-26T22:06:12.398Z,101945.91
2022-10-26T22:08:39.052Z,101944.59
2022-10-26T22:11:17.373Z,101936.06
2022-10-26T22:13:44.683Z,101938.78
2022-10-26T22:16:23.402Z,101945.97
2022-10-26T22:18:51.858Z,101949.38
2022-10-26T22:21:19.328Z,101937.38
2022-10-26T22:23:46.603Z,101934.25
2022-10-26T22:26:15.814Z,101934.22
2022-10-26T22:28:43.936Z,101915.13
2022-10-26T22:31:16.652Z,101913.19
2022-10-26T22:33:43.819Z,101903.69
2022-10-26T22:36:12.471Z,101909.69
2022-10-26T22:38:39.198Z,101894.78
2022-10-26T22:41:06.215Z,101891.50
2022-10-26T22:43:32.886Z,101888.59
2022-10-26T22:46:05.673Z,101898.63
2022-10-26T22:48:32.983Z,101899.41
2022-10-26T22:51:00.020Z,101902.63
2022-10-26T22:53:26.578Z,101913.63
2022-10-26T22:55:53.144Z,101918.72
2022-10-26T22:58:20.851Z,101920.13
2022-10-26T23:00:47.499Z,101920.63
2022-10-26T23:03:14.093Z,101920.78
2022-10-26T23:05:47.731Z,101922.69
2022-10-26T23:08:14.444Z,101917.88
2022-10-26T23:10:41.117Z,101918.38
2022-10-26T23:13:07.754Z,101926.41
2022-10-26T23:15:34.418Z,101933.34
2022-10-26T23:18:01.048Z,101943.53
2022-10-26T23:20:27.732Z,101943.16
2022-10-26T23:22:54.430Z,101952.56
2022-10-26T23:25:21.026Z,101962.94
2022-10-26T23:27:47.662Z,101954.28
2022-10-26T23:30:16.697Z,101954.31
2022-10-26T23:32:43.307Z,101958.34
2022-10-26T23:35:10.166Z,101956.69
2022-10-26T23:37:36.778Z,101967.72
2022-10-26T23:40:03.687Z,101963.94
2022-10-26T23:42:30.280Z,101961.72
2022-10-26T23:44:56.901Z,101962.78
2022-10-26T23:47:23.514Z,101960.75
2022-10-26T23:49:51.355Z,101963.78
2022-10-26T23:52:17.927Z,101982.84
2022-10-26T23:54:44.567Z,101977.19
2022-10-26T23:57:11.153Z,101979.72
2022-10-26T23:59:37.760Z,101980.53
